Time;durP1;ratioP1;P1;durP2;ratioP2;P2;SDS_P1;SDS_P2;PMS_P1;PMS_P2;Temp;Humidity;BMP_temperature;BMP_pressure;BME280_temperature;BME280_humidity;BME280_pressure;Samples;Min_cycle;Max_cycle;Signal;HPM_P1;HPM_P2
2021/01/09 00:01:22;;;;;;;15.53;10.07;;;3.00;94.10;;;;;;5093346;28;20478;-72
2021/01/09 00:03:48;;;;;;;12.70;9.70;;;3.00;94.50;;;;;;5093315;28;20458;-72
2021/01/09 00:06:14;;;;;;;13.40;10.17;;;3.00;94.20;;;;;;5093407;28;20444;-72
2021/01/09 00:08:40;;;;;;;11.43;9.67;;;3.00;94.20;;;;;;5093329;28;20486;-72
2021/01/09 00:11:07;;;;;;;14.00;10.90;;;3.00;94.20;;;;;;5093052;28;20463;-71
2021/01/09 00:13:34;;;;;;;14.37;10.07;;;3.00;94.30;;;;;;5093568;28;20785;-72
2021/01/09 00:16:00;;;;;;;13.70;10.20;;;3.00;94.40;;;;;;5093427;28;20442;-72
2021/01/09 00:18:26;;;;;;;11.60;9.13;;;3.00;94.50;;;;;;5093023;28;20427;-72
2021/01/09 00:20:52;;;;;;;13.30;10.03;;;3.00;94.50;;;;;;5093298;28;20475;-72
2021/01/09 00:23:18;;;;;;;13.10;10.60;;;2.90;94.50;;;;;;5092907;28;20970;-72
2021/01/09 00:25:45;;;;;;;14.50;11.10;;;2.90;94.70;;;;;;5093209;28;20447;-72
2021/01/09 00:28:11;;;;;;;14.27;10.50;;;2.80;94.80;;;;;;5093141;28;20489;-72
2021/01/09 00:30:38;;;;;;;13.70;10.47;;;2.90;94.90;;;;;;5092909;28;20595;-72
2021/01/09 00:33:04;;;;;;;13.23;10.10;;;2.80;94.80;;;;;;5092861;28;20435;-72
2021/01/09 00:35:30;;;;;;;13.27;9.70;;;2.80;95.00;;;;;;5093178;28;20449;-72
2021/01/09 00:37:57;;;;;;;14.57;10.80;;;2.80;95.10;;;;;;5096211;28;20464;-72
2021/01/09 00:40:23;;;;;;;17.03;11.37;;;2.80;95.10;;;;;;5096731;28;20470;-72
2021/01/09 00:42:49;;;;;;;14.87;10.73;;;2.90;95.20;;;;;;5097002;28;20446;-72
2021/01/09 00:45:15;;;;;;;14.60;11.30;;;2.90;95.30;;;;;;5096966;28;20519;-72
2021/01/09 00:47:42;;;;;;;13.70;10.90;;;2.80;95.20;;;;;;5096934;28;20458;-72
2021/01/09 00:50:10;;;;;;;14.20;10.17;;;2.80;95.30;;;;;;5096692;28;20532;-72
2021/01/09 00:52:36;;;;;;;17.43;11.40;;;2.80;95.40;;;;;;5096791;28;20438;-72
2021/01/09 00:55:02;;;;;;;14.33;10.87;;;2.80;95.50;;;;;;5096475;28;20990;-72
2021/01/09 00:57:29;;;;;;;15.30;11.17;;;2.80;95.50;;;;;;5096732;28;20442;-71
2021/01/09 00:59:55;;;;;;;16.37;11.27;;;2.80;95.50;;;;;;5096323;28;20474;-72
2021/01/09 01:02:21;;;;;;;13.60;11.00;;;2.90;95.50;;;;;;5096612;28;20447;-72
2021/01/09 01:04:48;;;;;;;15.17;11.13;;;2.90;95.40;;;;;;5096300;28;20459;-71
2021/01/09 01:07:14;;;;;;;13.57;10.63;;;2.90;95.40;;;;;;5096550;28;20445;-72
2021/01/09 01:09:41;;;;;;;15.10;10.77;;;2.90;95.40;;;;;;5096066;28;21014;-72
2021/01/09 01:12:07;;;;;;;14.00;11.17;;;2.90;95.40;;;;;;5096485;28;20446;-72
2021/01/09 01:14:35;;;;;;;13.70;10.93;;;2.80;95.40;;;;;;5096451;28;20451;-72
2021/01/09 01:17:01;;;;;;;17.60;11.60;;;2.80;95.60;;;;;;5096393;28;20455;-72
2021/01/09 01:19:27;;;;;;;13.83;10.83;;;2.80;95.60;;;;;;5096243;28;20462;-72
2021/01/09 01:21:54;;;;;;;13.77;10.47;;;2.80;95.60;;;;;;5096298;28;20469;-71
2021/01/09 01:24:20;;;;;;;14.47;10.23;;;2.80;95.70;;;;;;5096255;28;20454;-72
2021/01/09 01:26:47;;;;;;;16.10;11.03;;;2.80;95.80;;;;;;5095932;28;20443;-72
2021/01/09 01:29:13;;;;;;;16.17;11.20;;;2.80;96.10;;;;;;5096026;28;20501;-72
2021/01/09 01:31:39;;;;;;;15.27;10.67;;;2.80;95.80;;;;;;5095792;28;20968;-72
2021/01/09 01:34:05;;;;;;;14.57;11.13;;;2.90;95.90;;;;;;5096067;28;20438;-72
2021/01/09 01:36:32;;;;;;;14.23;11.27;;;2.90;95.70;;;;;;5095984;28;20443;-72
2021/01/09 01:38:59;;;;;;;14.03;10.57;;;2.90;95.60;;;;;;5095989;28;20435;-71
2021/01/09 01:41:25;;;;;;;15.50;10.43;;;2.90;95.60;;;;;;5095518;28;20461;-72
2021/01/09 01:43:52;;;;;;;16.13;11.47;;;2.90;95.60;;;;;;5095877;28;20451;-72
2021/01/09 01:46:19;;;;;;;13.80;10.37;;;2.90;95.70;;;;;;5095824;28;20447;-71
2021/01/09 01:48:45;;;;;;;17.70;11.40;;;2.80;95.60;;;;;;5095685;28;20463;-72
2021/01/09 01:51:13;;;;;;;16.30;11.77;;;2.90;95.80;;;;;;5095295;28;20473;-72
2021/01/09 01:53:40;;;;;;;14.73;10.73;;;2.80;95.80;;;;;;5095734;28;20447;-72
2021/01/09 01:56:08;;;;;;;15.80;11.00;;;2.80;95.80;;;;;;5095605;28;20497;-72
2021/01/09 01:58:34;;;;;;;15.00;11.00;;;2.80;95.90;;;;;;5095572;28;20442;-71
2021/01/09 02:01:00;;;;;;;14.10;10.93;;;2.90;95.90;;;;;;5095436;28;20512;-72
2021/01/09 02:03:26;;;;;;;14.00;10.17;;;2.90;95.90;;;;;;5095045;28;20955;-71
2021/01/09 02:06:01;;;;;;;16.07;11.30;;;2.90;95.80;;;;;;5095225;28;20898;-72
2021/01/09 02:08:31;;;;;;;15.97;11.13;;;2.90;95.80;;;;;;5095377;28;20460;-71
2021/01/09 02:11:01;;;;;;;15.50;10.80;;;2.90;95.70;;;;;;5095272;28;20516;-71
2021/01/09 02:13:44;;;;;;;17.23;10.53;;;2.90;95.60;;;;;;5095325;28;20446;-71
2021/01/09 02:16:11;;;;;;;15.90;11.93;;;2.90;95.60;;;;;;5093735;28;20507;-72
2021/01/09 02:18:40;;;;;;;14.23;10.60;;;2.90;95.60;;;;;;5095137;28;20489;-72
2021/01/09 02:21:16;;;;;;;15.43;11.10;;;2.90;95.60;;;;;;5095106;28;20458;-72
2021/01/09 02:23:43;;;;;;;13.53;10.40;;;2.90;95.70;;;;;;5095198;28;20474;-72
2021/01/09 02:26:10;;;;;;;17.47;11.03;;;2.90;95.80;;;;;;5095036;28;20438;-71
2021/01/09 02:28:36;;;;;;;12.80;9.07;;;2.90;95.80;;;;;;5094908;28;20478;-71
2021/01/09 02:31:03;;;;;;;13.53;10.27;;;2.80;95.80;;;;;;5094868;28;20474;-71
2021/01/09 02:33:32;;;;;;;14.73;11.53;;;2.90;95.90;;;;;;5094629;28;20968;-71
2021/01/09 02:36:00;;;;;;;14.10;11.03;;;2.90;95.80;;;;;;5094794;28;20457;-72
2021/01/09 02:38:26;;;;;;;17.20;11.73;;;2.90;95.90;;;;;;5094765;28;20454;-72
2021/01/09 02:40:54;;;;;;;17.53;11.87;;;2.90;95.90;;;;;;5094329;28;20981;-72
2021/01/09 02:43:25;;;;;;;19.33;11.10;;;2.90;95.80;;;;;;5094725;28;20458;-72
2021/01/09 02:45:51;;;;;;;19.00;11.47;;;2.90;95.80;;;;;;5094731;28;20429;-72
2021/01/09 02:48:18;;;;;;;15.10;11.13;;;2.90;95.90;;;;;;5094521;28;20447;-71
2021/01/09 02:50:44;;;;;;;13.40;10.40;;;2.90;95.90;;;;;;5094501;28;20471;-72
2021/01/09 02:53:10;;;;;;;16.30;11.03;;;2.90;95.80;;;;;;5094540;28;20446;-72
2021/01/09 02:55:36;;;;;;;17.43;12.03;;;2.90;95.80;;;;;;5094551;28;20516;-72
2021/01/09 02:58:03;;;;;;;15.40;11.53;;;3.00;95.90;;;;;;5094496;28;20455;-72
2021/01/09 03:00:29;;;;;;;19.27;11.37;;;3.00;96.00;;;;;;5093851;28;20467;-72
2021/01/09 03:02:55;;;;;;;15.43;10.63;;;3.00;95.80;;;;;;5094334;28;20449;-72
2021/01/09 03:05:22;;;;;;;14.27;11.20;;;3.00;95.70;;;;;;5093961;28;20453;-72
2021/01/09 03:07:48;;;;;;;14.77;11.80;;;3.00;95.70;;;;;;5094279;28;20500;-72
2021/01/09 03:10:14;;;;;;;14.03;10.40;;;3.00;95.60;;;;;;5094636;28;20487;-72
2021/01/09 03:12:40;;;;;;;18.10;11.73;;;3.00;95.60;;;;;;5094236;28;20444;-72
2021/01/09 03:15:08;;;;;;;13.77;10.37;;;3.00;95.70;;;;;;5094157;28;20450;-72
2021/01/09 03:17:35;;;;;;;13.33;9.97;;;3.00;95.70;;;;;;5094112;28;20446;-72
2021/01/09 03:20:01;;;;;;;15.33;11.03;;;3.00;95.70;;;;;;5094091;28;20467;-72
2021/01/09 03:22:27;;;;;;;15.50;11.10;;;3.00;95.70;;;;;;5093785;28;21008;-72
2021/01/09 03:24:53;;;;;;;13.47;10.00;;;3.00;95.70;;;;;;5094048;28;20453;-72
2021/01/09 03:27:19;;;;;;;14.80;10.40;;;3.00;95.90;;;;;;5093957;28;20455;-72
2021/01/09 03:29:46;;;;;;;14.10;9.67;;;3.00;95.80;;;;;;5093485;28;20486;-72
2021/01/09 03:32:13;;;;;;;17.60;11.50;;;2.90;95.70;;;;;;5093895;28;20456;-71
2021/01/09 03:34:39;;;;;;;19.30;12.07;;;3.00;95.90;;;;;;5093574;28;20969;-71
2021/01/09 03:37:05;;;;;;;15.00;11.17;;;3.00;95.80;;;;;;5093816;28;20453;-72
2021/01/09 03:39:32;;;;;;;13.77;10.73;;;3.00;95.90;;;;;;5093400;28;20995;-72
2021/01/09 03:41:58;;;;;;;15.00;10.83;;;3.00;96.00;;;;;;5093758;28;20462;-72
2021/01/09 03:44:24;;;;;;;13.63;9.63;;;3.10;95.90;;;;;;5094431;28;20465;-72
2021/01/09 03:46:50;;;;;;;16.00;10.07;;;3.00;95.90;;;;;;5093661;28;20842;-72
2021/01/09 03:49:17;;;;;;;13.67;10.53;;;3.10;95.90;;;;;;5093515;28;20500;-72
2021/01/09 03:51:43;;;;;;;13.70;10.70;;;3.10;95.70;;;;;;5093695;28;20455;-72
2021/01/09 03:54:09;;;;;;;15.70;11.40;;;3.10;95.60;;;;;;5093289;28;20816;-72
2021/01/09 03:56:36;;;;;;;14.10;10.23;;;3.10;95.60;;;;;;5093562;28;20493;-72
2021/01/09 03:59:02;;;;;;;15.53;9.93;;;3.10;95.40;;;;;;5093267;28;20934;-72
2021/01/09 04:01:28;;;;;;;12.77;10.47;;;3.00;95.30;;;;;;5093150;28;20465;-71
2021/01/09 04:03:54;;;;;;;13.00;10.33;;;3.00;95.40;;;;;;5093067;28;20826;-72
2021/01/09 04:06:21;;;;;;;12.73;9.80;;;3.00;95.40;;;;;;5093498;28;20493;-72
2021/01/09 04:08:47;;;;;;;12.33;9.63;;;2.90;95.40;;;;;;5093376;28;20479;-72
2021/01/09 04:11:14;;;;;;;13.77;10.73;;;2.90;95.40;;;;;;5093676;28;20470;-72
2021/01/09 04:13:40;;;;;;;13.67;9.83;;;2.90;95.40;;;;;;5097605;28;20447;-72
2021/01/09 04:16:06;;;;;;;12.57;9.30;;;2.90;95.40;;;;;;5097559;28;20447;-71
2021/01/09 04:18:33;;;;;;;13.07;9.67;;;2.90;95.30;;;;;;5097559;28;20431;-71
2021/01/09 04:20:59;;;;;;;16.57;10.77;;;2.90;95.20;;;;;;5097488;28;20536;-72
2021/01/09 04:23:26;;;;;;;15.57;11.00;;;2.90;95.30;;;;;;5097419;28;20443;-72
2021/01/09 04:25:52;;;;;;;12.57;9.77;;;2.80;95.30;;;;;;5097851;28;20457;-72
2021/01/09 04:28:19;;;;;;;16.37;12.00;;;2.80;95.30;;;;;;5097353;28;20491;-72
2021/01/09 04:30:45;;;;;;;16.17;11.83;;;2.80;95.40;;;;;;5097221;28;20473;-72
2021/01/09 04:33:11;;;;;;;13.50;10.00;;;2.70;95.30;;;;;;5096926;28;20453;-72
2021/01/09 04:35:37;;;;;;;14.40;10.77;;;2.70;95.30;;;;;;5097229;28;20441;-72
2021/01/09 04:38:04;;;;;;;13.97;10.87;;;2.70;95.40;;;;;;5096848;28;20444;-72
2021/01/09 04:40:31;;;;;;;16.10;10.50;;;2.70;95.40;;;;;;5097016;28;20466;-72
2021/01/09 04:42:58;;;;;;;18.00;10.90;;;2.70;95.30;;;;;;5097501;28;20441;-72
2021/01/09 04:45:24;;;;;;;17.87;12.30;;;2.60;95.30;;;;;;5097038;28;20438;-72
2021/01/09 04:47:51;;;;;;;21.80;11.87;;;2.60;95.30;;;;;;5096966;28;20472;-72
2021/01/09 04:50:18;;;;;;;16.70;11.23;;;2.60;95.30;;;;;;5096722;28;20482;-72
2021/01/09 04:52:46;;;;;;;16.47;11.57;;;2.60;95.40;;;;;;5096559;28;20987;-72
2021/01/09 04:55:12;;;;;;;18.70;12.60;;;2.60;95.30;;;;;;5096484;28;20926;-72
2021/01/09 04:57:39;;;;;;;17.60;11.73;;;2.60;95.20;;;;;;5096760;28;20811;-72
2021/01/09 05:00:07;;;;;;;19.83;11.90;;;2.60;95.30;;;;;;5096617;28;20460;-72
2021/01/09 05:02:35;;;;;;;18.17;12.20;;;2.50;95.30;;;;;;5096720;28;20451;-72
2021/01/09 05:05:02;;;;;;;20.83;12.47;;;2.50;95.50;;;;;;5095327;28;20465;-72
2021/01/09 05:07:28;;;;;;;22.90;13.40;;;2.50;95.50;;;;;;5095467;28;20431;-72
2021/01/09 05:10:05;;;;;;;21.90;13.97;;;2.50;95.60;;;;;;5095221;28;20823;-72
2021/01/09 05:12:35;;;;;;;22.77;14.37;;;2.40;95.60;;;;;;5095336;28;20433;-72
2021/01/09 05:15:04;;;;;;;25.90;14.10;;;2.40;95.70;;;;;;5095236;28;20475;-71
2021/01/09 05:17:32;;;;;;;21.77;14.00;;;2.40;95.90;;;;;;5095234;28;20458;-72
2021/01/09 05:19:58;;;;;;;28.83;15.17;;;2.30;96.00;;;;;;5095084;28;20473;-72
2021/01/09 05:22:25;;;;;;;27.27;15.93;;;2.30;96.10;;;;;;5094816;28;20464;-72
2021/01/09 05:24:53;;;;;;;26.67;14.97;;;2.30;96.40;;;;;;5095106;28;20447;-72
2021/01/09 05:27:20;;;;;;;38.13;15.80;;;2.30;96.40;;;;;;5095042;28;20446;-72
2021/01/09 05:29:51;;;;;;;32.73;14.97;;;2.40;96.50;;;;;;5095468;28;20849;-72
2021/01/09 05:32:19;;;;;;;36.73;15.17;;;2.30;96.50;;;;;;5095009;28;20427;-72
2021/01/09 05:34:47;;;;;;;30.80;15.57;;;2.30;96.60;;;;;;5094634;28;20991;-72
2021/01/09 05:37:18;;;;;;;48.83;16.70;;;2.30;96.80;;;;;;5094628;28;21012;-72
2021/01/09 05:39:49;;;;;;;50.00;18.00;;;2.30;96.80;;;;;;5094481;28;20461;-72
2021/01/09 05:42:19;;;;;;;44.43;15.90;;;2.40;96.90;;;;;;5094829;28;20458;-72
2021/01/09 05:44:45;;;;;;;42.77;17.03;;;2.40;96.90;;;;;;5094507;28;20431;-72
2021/01/09 05:47:12;;;;;;;39.47;16.57;;;2.40;96.80;;;;;;5094752;28;20441;-72
2021/01/09 05:49:42;;;;;;;43.37;16.27;;;2.50;96.80;;;;;;5094626;28;20486;-72
2021/01/09 05:52:09;;;;;;;44.53;17.60;;;2.50;96.70;;;;;;5094689;28;20510;-72
2021/01/09 05:54:36;;;;;;;42.00;16.97;;;2.60;96.60;;;;;;5094650;28;20442;-72
2021/01/09 05:57:04;;;;;;;59.33;17.60;;;2.50;96.40;;;;;;5094593;28;20523;-72
2021/01/09 05:59:31;;;;;;;66.07;17.23;;;2.50;96.30;;;;;;5094210;28;21007;-72
2021/01/09 06:01:59;;;;;;;60.73;16.90;;;2.50;96.30;;;;;;5094494;28;20465;-72
2021/01/09 06:04:29;;;;;;;49.83;15.30;;;2.50;96.20;;;;;;5075512;28;545733;-72
2021/01/09 06:07:05;;;;;;;41.23;15.07;;;2.50;96.30;;;;;;5095474;28;20459;-72
2021/01/09 06:09:35;;;;;;;38.83;16.60;;;2.50;96.50;;;;;;5095268;28;20582;-72
2021/01/09 06:12:05;;;;;;;46.00;17.10;;;2.50;96.40;;;;;;5095347;28;20859;-72
2021/01/09 06:14:34;;;;;;;22.70;14.43;;;2.60;96.50;;;;;;5095193;28;20908;-72
2021/01/09 06:17:01;;;;;;;23.70;15.93;;;2.60;96.60;;;;;;5094936;28;21012;-72
2021/01/09 06:19:28;;;;;;;32.13;15.77;;;2.60;96.60;;;;;;5095047;28;20456;-72
2021/01/09 06:21:55;;;;;;;43.47;15.20;;;2.70;96.70;;;;;;5095128;28;20450;-72
2021/01/09 06:24:24;;;;;;;46.83;16.70;;;2.70;96.60;;;;;;5095111;28;20447;-72
2021/01/09 06:26:50;;;;;;;30.53;17.13;;;2.80;96.60;;;;;;5095050;28;20451;-72
2021/01/09 06:29:21;;;;;;;30.47;13.73;;;2.80;96.50;;;;;;5094796;28;20481;-72
2021/01/09 06:31:54;;;;;;;23.90;14.60;;;2.80;96.40;;;;;;5094968;28;20472;-72
2021/01/09 06:34:21;;;;;;;27.43;15.77;;;2.90;96.50;;;;;;5094150;28;20864;-72
2021/01/09 06:36:50;;;;;;;39.80;15.20;;;2.90;96.40;;;;;;5094544;28;20931;-72
2021/01/09 06:39:17;;;;;;;65.73;16.80;;;3.00;96.30;;;;;;5094802;28;20492;-72
2021/01/09 06:41:45;;;;;;;34.93;14.57;;;2.90;96.10;;;;;;5094749;28;20520;-72
2021/01/09 06:44:14;;;;;;;52.53;15.07;;;2.90;96.00;;;;;;5094751;28;20499;-72
2021/01/09 06:46:42;;;;;;;47.67;15.60;;;2.90;96.00;;;;;;5094356;28;20961;-72
2021/01/09 06:49:16;;;;;;;41.73;14.63;;;2.90;95.90;;;;;;5094502;28;20470;-72
2021/01/09 06:51:44;;;;;;;60.63;14.63;;;2.90;95.90;;;;;;5094631;28;20438;-72
2021/01/09 06:54:27;;;;;;;41.80;15.20;;;2.90;95.80;;;;;;5094525;28;20443;-72
2021/01/09 06:57:10;;;;;;;48.60;13.90;;;2.90;95.80;;;;;;5094581;28;20803;-72
2021/01/09 06:59:37;;;;;;;35.97;14.60;;;2.90;95.80;;;;;;5094112;28;20968;-72
2021/01/09 07:02:11;;;;;;;25.80;13.30;;;2.90;95.80;;;;;;5094379;28;20804;-72
2021/01/09 07:04:58;;;;;;;47.67;13.80;;;2.80;95.80;;;;;;5094110;28;20447;-72
2021/01/09 07:07:29;;;;;;;31.33;14.37;;;2.80;95.90;;;;;;5094305;28;20475;-72
2021/01/09 07:10:14;;;;;;;81.30;16.20;;;2.80;95.80;;;;;;5093775;28;20999;-72
2021/01/09 07:12:47;;;;;;;52.30;15.47;;;2.80;95.90;;;;;;5094273;28;20468;-72
2021/01/09 07:15:15;;;;;;;69.30;15.30;;;2.80;95.90;;;;;;5094216;28;20438;-71
2021/01/09 07:17:47;;;;;;;37.13;14.33;;;2.80;95.90;;;;;;5094149;28;20450;-72
2021/01/09 07:20:14;;;;;;;52.03;15.23;;;2.80;95.90;;;;;;5094066;28;20465;-72
2021/01/09 07:22:42;;;;;;;39.87;14.40;;;2.80;95.90;;;;;;5094038;28;20502;-72
2021/01/09 07:25:10;;;;;;;54.43;14.80;;;2.80;95.90;;;;;;5094114;28;20854;-72
2021/01/09 07:27:40;;;;;;;45.17;16.63;;;2.70;95.90;;;;;;5094036;28;20451;-72
2021/01/09 07:30:11;;;;;;;60.67;15.37;;;2.70;96.00;;;;;;5093798;28;20511;-72
2021/01/09 07:32:43;;;;;;;74.30;15.40;;;2.60;96.10;;;;;;5093920;28;20474;-72
2021/01/09 07:35:10;;;;;;;73.40;15.57;;;2.70;96.30;;;;;;5093910;28;20436;-72
2021/01/09 07:37:39;;;;;;;40.90;14.87;;;2.60;96.30;;;;;;5093803;28;20445;-72
2021/01/09 07:40:14;;;;;;;58.80;14.40;;;2.60;96.30;;;;;;5093748;28;20499;-72
2021/01/09 07:42:41;;;;;;;48.47;15.10;;;2.60;96.30;;;;;;5093751;28;20443;-72
2021/01/09 07:45:10;;;;;;;46.47;14.40;;;2.60;96.30;;;;;;5093217;28;20499;-72
2021/01/09 07:47:39;;;;;;;34.33;15.10;;;2.60;96.50;;;;;;5093714;28;20425;-72
2021/01/09 07:50:07;;;;;;;45.30;16.60;;;2.60;96.50;;;;;;5093530;28;20480;-71
2021/01/09 07:52:34;;;;;;;25.33;13.90;;;2.60;96.40;;;;;;5093714;28;20444;-72
2021/01/09 07:55:02;;;;;;;56.07;16.17;;;2.60;96.50;;;;;;5093619;28;20460;-72
2021/01/09 07:57:30;;;;;;;58.97;14.23;;;2.60;96.60;;;;;;5093620;28;20513;-71
2021/01/09 08:00:10;;;;;;;32.60;15.90;;;2.60;96.60;;;;;;5093182;28;20565;-72
2021/01/09 08:02:37;;;;;;;36.60;16.17;;;2.50;96.60;;;;;;5093598;28;20468;-72
2021/01/09 08:05:16;;;;;;;33.23;16.47;;;2.60;96.70;;;;;;5093145;28;20468;-71
2021/01/09 08:07:44;;;;;;;36.50;14.97;;;2.60;96.70;;;;;;5093535;28;20437;-72
2021/01/09 08:10:21;;;;;;;32.77;14.80;;;2.60;96.80;;;;;;5093276;28;20544;-72
2021/01/09 08:12:52;;;;;;;32.47;14.67;;;2.60;96.70;;;;;;5093486;28;20427;-72
2021/01/09 08:15:20;;;;;;;32.23;13.40;;;2.60;96.70;;;;;;5093489;28;20470;-72
2021/01/09 08:17:46;;;;;;;22.50;13.90;;;2.60;96.90;;;;;;5093387;28;20449;-72
2021/01/09 08:20:14;;;;;;;48.73;15.80;;;2.70;97.00;;;;;;5092973;28;20995;-72
2021/01/09 08:22:50;;;;;;;26.60;14.73;;;2.70;97.00;;;;;;5093376;28;20445;-72
2021/01/09 08:25:16;;;;;;;47.13;16.10;;;2.80;96.90;;;;;;5093212;28;20436;-72
2021/01/09 08:27:44;;;;;;;47.23;16.17;;;2.80;96.90;;;;;;5092958;28;21010;-72
2021/01/09 08:30:13;;;;;;;50.40;15.60;;;2.90;96.80;;;;;;5092835;28;20494;-72
2021/01/09 08:32:40;;;;;;;55.10;16.23;;;2.90;96.50;;;;;;5093302;28;20437;-71
2021/01/09 08:35:08;;;;;;;38.60;15.67;;;2.90;96.30;;;;;;5093254;28;20446;-72
2021/01/09 08:37:34;;;;;;;30.30;15.87;;;2.90;96.30;;;;;;5093261;28;20459;-72
2021/01/09 08:40:10;;;;;;;65.20;15.60;;;2.80;96.40;;;;;;5093130;28;20469;-72
2021/01/09 08:42:36;;;;;;;55.70;17.00;;;2.90;96.50;;;;;;5093235;28;20453;-72
2021/01/09 08:45:03;;;;;;;56.17;17.43;;;2.90;96.40;;;;;;5093209;28;20794;-72
2021/01/09 08:47:29;;;;;;;99.80;18.53;;;2.90;96.30;;;;;;5093160;28;20446;-71
2021/01/09 08:49:59;;;;;;;49.00;17.27;;;2.80;96.20;;;;;;5092745;28;21018;-72
2021/01/09 08:52:28;;;;;;;88.80;20.87;;;2.80;96.40;;;;;;5093171;28;20434;-72
2021/01/09 08:54:57;;;;;;;114.17;19.13;;;2.90;96.40;;;;;;5093143;28;20457;-72
2021/01/09 08:57:26;;;;;;;68.73;18.57;;;2.90;96.30;;;;;;5093579;28;20431;-72
2021/01/09 08:59:52;;;;;;;67.27;17.90;;;2.90;96.30;;;;;;5096779;28;20459;-72
2021/01/09 09:02:20;;;;;;;47.60;17.13;;;2.90;96.30;;;;;;5096714;28;20806;-72
2021/01/09 09:04:50;;;;;;;58.97;18.90;;;3.00;96.40;;;;;;5096456;28;20457;-72
2021/01/09 09:07:21;;;;;;;68.77;16.93;;;3.10;96.40;;;;;;5096852;28;20455;-72
2021/01/09 09:09:47;;;;;;;57.13;18.13;;;3.10;96.20;;;;;;5096142;28;20899;-72
2021/01/09 09:12:23;;;;;;;67.87;18.60;;;3.10;96.10;;;;;;5096533;28;20442;-72
2021/01/09 09:14:56;;;;;;;53.43;16.10;;;3.10;96.00;;;;;;5096233;28;20939;-71
2021/01/09 09:17:24;;;;;;;91.30;18.50;;;3.20;96.00;;;;;;5096145;28;20822;-71
2021/01/09 09:19:51;;;;;;;43.80;16.40;;;3.20;95.90;;;;;;5096045;28;21011;-71
2021/01/09 09:22:29;;;;;;;64.10;15.20;;;3.20;95.80;;;;;;5096423;28;20789;-71
2021/01/09 09:24:55;;;;;;;38.10;16.00;;;3.20;95.60;;;;;;5096368;28;20793;-71
2021/01/09 09:27:23;;;;;;;44.97;14.50;;;3.00;95.40;;;;;;5095931;28;20443;-71
2021/01/09 09:29:50;;;;;;;48.93;15.83;;;3.10;95.60;;;;;;5095753;28;20486;-71
2021/01/09 09:32:27;;;;;;;50.03;16.90;;;3.10;95.70;;;;;;5095832;28;20451;-71
2021/01/09 09:34:53;;;;;;;35.20;14.90;;;3.10;95.80;;;;;;5095817;28;20800;-71
2021/01/09 09:37:19;;;;;;;35.90;16.20;;;3.10;95.70;;;;;;5095758;28;20446;-71
2021/01/09 09:39:47;;;;;;;30.03;15.70;;;3.10;95.70;;;;;;5095871;28;20466;-71
2021/01/09 09:42:26;;;;;;;36.00;14.53;;;3.20;95.70;;;;;;5095969;28;20456;-71
2021/01/09 09:44:52;;;;;;;27.63;15.80;;;3.20;95.60;;;;;;5095937;28;20480;-72
2021/01/09 09:47:25;;;;;;;36.33;15.07;;;3.30;95.50;;;;;;5095891;28;20504;-71
2021/01/09 09:49:51;;;;;;;33.13;15.53;;;3.20;95.30;;;;;;5095685;28;20503;-71
2021/01/09 09:52:18;;;;;;;40.00;16.60;;;3.30;95.50;;;;;;5095496;28;20439;-71
2021/01/09 09:54:45;;;;;;;34.50;17.10;;;3.30;95.50;;;;;;5095810;28;20444;-74
2021/01/09 09:57:20;;;;;;;30.23;15.90;;;3.30;95.50;;;;;;5095759;28;20484;-74
2021/01/09 09:59:46;;;;;;;26.37;15.67;;;3.30;95.40;;;;;;5095506;28;21019;-72
2021/01/09 10:02:20;;;;;;;31.87;15.20;;;3.30;95.30;;;;;;5095635;28;20487;-72
2021/01/09 10:04:46;;;;;;;38.63;17.27;;;3.30;95.30;;;;;;5095440;28;20647;-72
2021/01/09 10:07:21;;;;;;;25.43;17.17;;;3.20;95.30;;;;;;5095520;28;20461;-72
2021/01/09 10:09:48;;;;;;;28.73;16.80;;;3.20;95.30;;;;;;5094107;28;20525;-72
2021/01/09 10:12:14;;;;;;;32.97;17.07;;;3.30;95.50;;;;;;5095396;28;20435;-71
2021/01/09 10:14:41;;;;;;;26.80;15.67;;;3.30;95.60;;;;;;5095348;28;20432;-71
2021/01/09 10:17:13;;;;;;;30.37;15.77;;;3.30;95.50;;;;;;5095103;28;20419;-73
2021/01/09 10:19:40;;;;;;;35.70;15.73;;;3.30;95.50;;;;;;5094892;28;20468;-74
2021/01/09 10:22:06;;;;;;;29.07;15.17;;;3.40;95.60;;;;;;5095210;28;20442;-72
2021/01/09 10:24:32;;;;;;;29.80;14.80;;;3.40;95.50;;;;;;5095144;28;20458;-72
2021/01/09 10:27:01;;;;;;;24.50;14.50;;;3.40;95.40;;;;;;5094885;28;20921;-72
2021/01/09 10:29:27;;;;;;;25.50;14.37;;;3.40;95.30;;;;;;5094946;28;20565;-74
2021/01/09 10:31:54;;;;;;;23.80;14.03;;;3.40;95.10;;;;;;5095096;28;20517;-74
2021/01/09 10:34:20;;;;;;;25.97;15.17;;;3.30;95.10;;;;;;5094946;28;20504;-73
2021/01/09 10:36:47;;;;;;;28.90;15.10;;;3.40;95.20;;;;;;5094905;28;20454;-74
2021/01/09 10:39:13;;;;;;;40.53;15.13;;;3.40;95.30;;;;;;5094774;28;20438;-74
2021/01/09 10:41:39;;;;;;;39.10;14.33;;;3.30;95.40;;;;;;5094798;28;20450;-74
2021/01/09 10:44:06;;;;;;;39.13;16.50;;;3.30;95.40;;;;;;5094779;28;20461;-73
2021/01/09 10:46:33;;;;;;;47.00;15.87;;;3.20;95.60;;;;;;5094724;28;20448;-74
2021/01/09 10:49:00;;;;;;;30.80;15.87;;;3.20;95.70;;;;;;5094839;28;20575;-73
2021/01/09 10:51:29;;;;;;;25.87;14.60;;;3.20;95.80;;;;;;5094574;28;20480;-74
2021/01/09 10:53:55;;;;;;;32.10;13.90;;;3.20;95.90;;;;;;5094648;28;20550;-73
2021/01/09 10:56:21;;;;;;;35.83;15.80;;;3.20;95.90;;;;;;5095157;28;20452;-74
2021/01/09 10:58:47;;;;;;;30.50;15.60;;;3.20;95.90;;;;;;5094522;28;20448;-73
2021/01/09 11:01:13;;;;;;;27.23;14.00;;;3.20;95.90;;;;;;5094429;28;20459;-73
2021/01/09 11:03:42;;;;;;;29.23;15.10;;;3.20;96.00;;;;;;5093954;28;20469;-73
2021/01/09 11:06:10;;;;;;;28.67;16.93;;;3.20;95.90;;;;;;5094416;28;20430;-73
2021/01/09 11:08:37;;;;;;;38.80;16.93;;;3.20;95.90;;;;;;5094568;28;20510;-78
2021/01/09 11:11:03;;;;;;;31.13;17.87;;;3.20;96.00;;;;;;5094198;28;20537;-75
2021/01/09 11:13:30;;;;;;;43.83;17.17;;;3.20;96.20;;;;;;5094048;28;20933;-72
2021/01/09 11:15:56;;;;;;;47.23;18.67;;;3.30;96.30;;;;;;5094237;28;20452;-72
2021/01/09 11:18:22;;;;;;;39.80;19.50;;;3.30;96.20;;;;;;5094131;28;20790;-72
2021/01/09 11:20:50;;;;;;;36.27;17.07;;;3.30;96.30;;;;;;5093894;28;20471;-72
2021/01/09 11:23:17;;;;;;;37.70;19.50;;;3.30;96.20;;;;;;5094133;28;20486;-74
2021/01/09 11:25:44;;;;;;;43.47;21.17;;;3.40;96.20;;;;;;5094292;28;20451;-76
2021/01/09 11:28:11;;;;;;;45.20;21.03;;;3.40;96.10;;;;;;5093679;28;20958;-77
2021/01/09 11:30:37;;;;;;;38.40;18.60;;;3.40;96.00;;;;;;5093800;28;20487;-73
2021/01/09 11:33:04;;;;;;;43.53;19.77;;;3.50;96.00;;;;;;5093969;28;20446;-74
2021/01/09 11:35:30;;;;;;;39.70;19.33;;;3.50;96.00;;;;;;5093870;28;20444;-74
2021/01/09 11:37:57;;;;;;;47.80;23.13;;;3.60;96.50;;;;;;5093869;28;20628;-76
2021/01/09 11:40:26;;;;;;;57.77;23.33;;;3.60;96.10;;;;;;5094196;28;20456;-75
2021/01/09 11:42:52;;;;;;;47.53;21.30;;;3.60;96.10;;;;;;5093814;28;20452;-75
2021/01/09 11:45:19;;;;;;;44.03;21.77;;;3.70;96.10;;;;;;5093417;28;20447;-75
2021/01/09 11:47:45;;;;;;;43.67;23.13;;;3.80;96.10;;;;;;5093718;28;20451;-75
2021/01/09 11:50:12;;;;;;;42.07;21.67;;;3.90;95.60;;;;;;5093288;28;20486;-75
2021/01/09 11:52:39;;;;;;;44.00;20.30;;;4.00;95.50;;;;;;5093648;28;20447;-75
2021/01/09 11:55:07;;;;;;;49.83;23.50;;;4.10;95.30;;;;;;5093616;28;20452;-75
2021/01/09 11:57:34;;;;;;;42.97;22.67;;;4.20;95.20;;;;;;5093630;28;20451;-75
2021/01/09 12:00:01;;;;;;;40.83;21.73;;;4.20;95.00;;;;;;5093530;28;20467;-76
2021/01/09 12:02:27;;;;;;;46.87;22.83;;;4.20;94.80;;;;;;5093324;28;20459;-76
2021/01/09 12:04:53;;;;;;;41.10;21.40;;;4.10;94.80;;;;;;5093201;28;20447;-76
2021/01/09 12:07:19;;;;;;;37.40;19.77;;;4.10;94.70;;;;;;5093475;28;20454;-75
2021/01/09 12:09:46;;;;;;;36.27;19.83;;;4.00;94.50;;;;;;5094010;28;20502;-75
2021/01/09 12:12:12;;;;;;;34.40;18.27;;;4.00;94.40;;;;;;5093508;28;20447;-74
2021/01/09 12:14:39;;;;;;;33.73;19.13;;;3.90;94.50;;;;;;5093497;28;20427;-75
2021/01/09 12:17:05;;;;;;;37.50;19.40;;;3.90;94.60;;;;;;5093466;28;20450;-74
2021/01/09 12:19:31;;;;;;;33.33;19.43;;;3.90;94.70;;;;;;5093356;28;20833;-74
2021/01/09 12:21:57;;;;;;;39.03;22.10;;;3.90;94.80;;;;;;5093581;28;20447;-74
2021/01/09 12:24:26;;;;;;;43.67;21.47;;;4.00;94.90;;;;;;5093481;28;20490;-73
2021/01/09 12:26:53;;;;;;;38.93;19.50;;;3.90;94.80;;;;;;5093413;28;20452;-74
2021/01/09 12:29:19;;;;;;;35.50;21.40;;;3.90;95.00;;;;;;5093252;28;20496;-74
2021/01/09 12:31:47;;;;;;;34.50;19.77;;;4.00;95.20;;;;;;5093373;28;20450;-74
2021/01/09 12:34:13;;;;;;;30.57;18.40;;;4.00;94.90;;;;;;5096920;28;20441;-75
2021/01/09 12:36:40;;;;;;;35.07;20.30;;;3.90;94.90;;;;;;5097493;28;20497;-74
2021/01/09 12:39:06;;;;;;;33.77;20.07;;;3.80;95.10;;;;;;5097401;28;20491;-75
2021/01/09 12:41:34;;;;;;;37.63;21.87;;;3.80;95.50;;;;;;5096940;28;20834;-75